Olney, Maryland
Current Conditions -  °F | °C
As of 5:15 AM on Sunday 25 Jan 2015 (Local Time) from KGAI Reporting Station
Overcast Overcast  
Wind Chill: 28°   Ceiling: 4200
Heat Index: 36°   Visibility: 10mi
Dew Point: 27°   Wind: 10mph
Humidity: 70%   Direction: 270°W
Pressure: 29.79"   Gusts: NA
Location:  39.15°N, 77.07°W
Report Text: KGAI 251015Z 27009KT 10SM OVC042 02/M03 A2979 RMK AO1
Loading
Personal Weather Stations






























Interactive Weather Map New forecast layout! Learn more

10-Day Weather Forecast

Advertisements
Track Severe Weather on mobile